• Join FlightAware (Why Join?)
  • Login
  • US Flag 
01:59PM EST


 

Airport Tracker/Info


-or-


 

Live Flight TrackerFlight Track Log ✈ SWA469 ✈ 06-May-2013 ✈ KMCI - KMDW

Flight Track Log - Related Links

Times and Time Zones

All times are in EDT time to prevent confusion due to time zone crossing. See the SWA469 flight status page for this flight to view local times or setup timezone preferences in your user account.

Time Position Orientation Groundspeed Altitude Reporting Facility
EDT Latitude Longitude Course Direction KTS MPH feet Rate Location/Type
07:09AM 39.3167 -94.7167 27° Northeast 156 180 1,900  Level Kansas City TRACON
07:10AM 39.3667 -94.6833 27° Northeast 196 226 3,900 2,100 Climbing Kansas City TRACON
07:11AM 39.3997 -94.6461 41° Northeast 231 266 5,900 3,300 Climbing Kansas City Center
07:12AM 39.4567 -94.5667 47° Northeast 270 311 10,500 3,540 Climbing Kansas City Center
07:13AM 39.5139 -94.4881 47° Northeast 320 368 13,100 2,940 Climbing Kansas City Center
07:14AM 39.5744 -94.3997 48° Northeast 341 392 16,500 3,240 Climbing Kansas City Center
07:15AM 39.6472 -94.2864 50° Northeast 367 422 19,700 2,880 Climbing Kansas City Center
07:16AM 39.7153 -94.1856 49° Northeast 387 445 22,400 2,520 Climbing Kansas City Center
07:17AM 39.7872 -94.0819 48° Northeast 401 461 24,900 2,400 Climbing Kansas City Center
07:18AM 39.8675 -93.9594 49° Northeast 423 487 27,300 2,580 Climbing Kansas City Center
07:19AM 39.9314 -93.8394 55° Northeast 419 482 30,200 1,800 Climbing Kansas City Center
07:20AM 39.9675 -93.7006 71° East 407 468 31,000 360 Climbing Kansas City Center
07:21AM 39.9953 -93.5597 76° East 405 466 31,000  Level Kansas City Center
07:22AM 40.0250 -93.4203 74° East 403 464 31,000  Level Kansas City Center
07:23AM 40.0517 -93.2789 76° East 404 465 31,000  Level Kansas City Center
07:24AM 40.0767 -93.1375 77° East 403 464 31,000  Level Kansas City Center
07:25AM 40.1122 -92.9761 74° East 399 459 31,000  Level Kansas City Center
07:26AM 40.1378 -92.8389 76° East 404 465 31,000  Level Kansas City Center
07:27AM 40.1639 -92.7033 76° East 403 464 31,000  Level Kansas City Center
07:28AM 40.1942 -92.5439 76° East 403 464 31,000  Level Kansas City Center
07:29AM 40.2214 -92.4097 75° East 399 459 31,000  Level Kansas City Center
07:30AM 40.2453 -92.2783 77° East 401 461 31,000  Level Kansas City Center
07:31AM 40.2717 -92.1381 76° East 401 461 31,000  Level Kansas City Center
07:32AM 40.3011 -91.9703 77° East 399 459 31,000  Level Kansas City Center
07:33AM 40.3267 -91.8303 76° East 399 459 31,000  Level Kansas City Center
07:34AM 40.3539 -91.6900 76° East 399 459 31,000  Level Kansas City Center
07:35AM 40.3783 -91.5497 77° East 399 459 31,000  Level Kansas City Center
07:36AM 40.4033 -91.4097 77° East 398 458 31,000  Level Kansas City Center
07:37AM 40.4294 -91.2628 77° East 402 463 31,000  Level Kansas City Center
07:38AM 40.4539 -91.1178 77° East 405 466 31,000  Level Kansas City Center
07:39AM 40.4806 -90.9756 76° East 404 465 31,000  Level Chicago Center
07:40AM 40.5050 -90.8319 77° East 404 465 31,000  Level Chicago Center
07:41AM 40.5347 -90.6603 77° East 402 463 31,000  Level Chicago Center
07:42AM 40.5586 -90.5183 77° East 400 460 31,000  Level Chicago Center
07:43AM 40.5831 -90.3778 77° East 396 456 31,000 -240 Level Chicago Center
07:44AM 40.6061 -90.2383 78° East 397 457 30,600 -840 Descending Chicago Center
07:45AM 40.6283 -90.1017 78° East 386 444 29,400 -1,440 Descending Chicago Center
07:46AM 40.6508 -89.9678 77° East 379 436 27,700 -1,980 Descending Chicago Center
07:47AM 40.6756 -89.8103 78° East 370 426 25,400 -2,100 Descending Chicago Center
07:48AM 40.7228 -89.6939 62° Northeast 361 415 23,400 -1,920 Descending Chicago Center
07:49AM 40.7714 -89.5811 60° Northeast 356 410 21,500 -1,380 Descending Chicago Center
07:50AM 40.8292 -89.4878 51° Northeast 349 402 20,600 -960 Descending Chicago Center
07:51AM 40.8914 -89.3889 50° Northeast 350 403 19,600 -1,260 Descending Chicago Center
07:53AM 40.9134 -89.2135 60° Northeast  Level FlightAware Approximate
07:55AM 41.1444 -88.9797 24° Northeast 328 377 14,200  Level Chicago Center
07:57AM 41.2123 -88.8523 55° Northeast  Level Estimated
07:58AM 41.3000 -88.7333 55° Northeast 297 342 10,100  Level Chicago TRACON
07:59AM 41.3489 -88.6422 54° Northeast 273 314 8,700 -1,260 Descending Chicago Center
08:00AM 41.3156 -88.4424 24° Northeast  Level FlightAware Approximate
08:01AM 41.4105 -88.3869 24° Northeast  Level FlightAware Approximate
08:01AM 41.4333 -88.5000 52° Northeast 247 284 6,200  Level Chicago TRACON
08:02AM 41.4667 -88.4333 56° Northeast 253 291 6,000 -420 Descending Chicago TRACON
08:03AM 41.5000 -88.3500 62° Northeast 246 283 5,500 -780 Descending Chicago TRACON
08:04AM 41.6144 -88.0854 55° Northeast  Level Estimated
08:04AM 41.5094 -88.3197 67° East 249 287 5,000  Level Chicago Center
08:05AM 41.5394 -88.2372 64° Northeast 248 285 4,000 -540 Descending Chicago Center
08:06AM 41.5678 -88.1572 65° Northeast 242 278 4,000  Level Chicago Center
08:07AM 41.5969 -88.0769 64° Northeast 239 275 4,000  Level Chicago Center
08:08AM 41.6233 -88.0006 65° Northeast 233 268 4,000  Level Chicago Center
08:09AM 41.6472 -87.9319 65° Northeast 214 246 4,000 -480 Level Chicago Center
08:10AM 41.6908 -87.8714 46° Northeast 189 217 3,100 -960 Descending Chicago Center
08:10AM 41.7000 -87.8667 21° North 181 208 2,800 -960 Descending Chicago TRACON
08:11AM 41.7333 -87.8167 48° Northeast 150 173 1,800 -780 Descending Chicago TRACON
08:12AM 41.7500 -87.7833 56° Northeast 117 135 1,300 -600 Descending Chicago TRACON
08:14AM 41.7833 -87.7500 North  Level FlightAware Approximate
08:21AM 41.7860 -87.7524 North  Level Estimated